Time;durP1;ratioP1;P1;durP2;ratioP2;P2;SDS_P1;SDS_P2;PMS_P1;PMS_P2;Temp;Humidity;BMP_temperature;BMP_pressure;BME280_temperature;BME280_humidity;BME280_pressure;Samples;Min_cycle;Max_cycle;Signal;HPM_P1;HPM_P2
2021/03/13 00:02:09;;;;;;;8.73;1.97;;;;;;;8.28;100.00;99342.56;1814472;77;932458;-72
2021/03/13 00:04:39;;;;;;;10.58;1.55;;;;;;;8.26;100.00;99328.79;1859144;76;930377;-73
2021/03/13 00:07:09;;;;;;;10.50;2.30;;;;;;;8.29;100.00;99313.81;1814468;77;933650;-73
2021/03/13 00:09:39;;;;;;;11.43;1.77;;;;;;;8.20;100.00;99296.26;1826206;77;932738;-73
2021/03/13 00:12:10;;;;;;;6.37;2.30;;;;;;;8.28;100.00;99280.32;1814535;75;934566;-73
2021/03/13 00:14:40;;;;;;;12.17;2.40;;;;;;;8.33;100.00;99272.52;1859164;76;930452;-73
2021/03/13 00:17:11;;;;;;;12.33;2.83;;;;;;;8.41;100.00;99261.55;1814477;77;934636;-72
2021/03/13 00:19:40;;;;;;;11.20;2.50;;;;;;;8.36;100.00;99251.96;1859083;76;932558;-73
2021/03/13 00:22:10;;;;;;;14.77;2.23;;;;;;;8.37;100.00;99237.57;1814244;77;933367;-73
2021/03/13 00:24:41;;;;;;;14.10;1.98;;;;;;;8.33;100.00;99219.95;1859026;76;932639;-73
2021/03/13 00:27:11;;;;;;;10.07;2.60;;;;;;;8.40;100.00;99214.81;1814448;77;934543;-73
2021/03/13 00:29:41;;;;;;;7.30;2.03;;;;;;;8.36;100.00;99199.97;1826372;77;932370;-73
2021/03/13 00:32:12;;;;;;;11.23;2.40;;;;;;;8.43;100.00;99188.72;1847198;76;932387;-73
2021/03/13 00:34:42;;;;;;;9.17;1.93;;;;;;;8.52;100.00;99197.09;1826480;77;932608;-73
2021/03/13 00:37:12;;;;;;;9.23;2.50;;;;;;;8.50;100.00;99206.29;1814424;77;932580;-73
2021/03/13 00:39:42;;;;;;;12.90;2.87;;;;;;;8.58;100.00;99213.29;1859234;76;930556;-73
2021/03/13 00:42:12;;;;;;;14.07;2.80;;;;;;;8.55;100.00;99204.80;1846924;76;934675;-73
2021/03/13 00:44:42;;;;;;;14.80;3.50;;;;;;;8.52;100.00;99205.40;1826474;77;932560;-73
2021/03/13 00:47:12;;;;;;;11.63;2.30;;;;;;;8.53;100.00;99197.36;1846990;76;934618;-73
2021/03/13 00:49:42;;;;;;;13.67;2.27;;;;;;;8.47;100.00;99195.86;1826344;77;932413;-73
2021/03/13 00:52:11;;;;;;;11.63;2.40;;;;;;;8.52;100.00;99192.95;1814430;77;934516;-73
2021/03/13 00:54:41;;;;;;;12.87;2.70;;;;;;;8.52;100.00;99192.95;1859290;76;932485;-72
2021/03/13 00:57:11;;;;;;;10.10;2.13;;;;;;;8.56;100.00;99177.36;1814394;77;934648;-73
2021/03/13 00:59:41;;;;;;;8.73;2.00;;;;;;;8.56;100.00;99181.50;1826420;77;932634;-72
2021/03/13 01:02:10;;;;;;;13.03;2.17;;;;;;;8.59;100.00;99167.89;1847063;76;932464;-74
2021/03/13 01:04:40;;;;;;;10.67;2.53;;;;;;;8.51;100.00;99165.05;1826303;77;932583;-73
2021/03/13 01:07:10;;;;;;;6.67;1.50;;;;;;;8.48;100.00;99157.35;1847209;76;934509;-73
2021/03/13 01:09:40;;;;;;;7.57;1.97;;;;;;;8.51;100.00;99154.80;1826344;77;930718;-73
2021/03/13 01:12:11;;;;;;;11.77;1.90;;;;;;;8.44;100.00;99147.48;1814429;77;931301;-73
2021/03/13 01:14:42;;;;;;;9.00;1.67;;;;;;;8.47;100.00;99148.23;1826383;77;932458;-73
2021/03/13 01:17:12;;;;;;;6.53;1.53;;;;;;;8.57;100.00;99169.31;1814514;77;932397;-73
2021/03/13 01:19:42;;;;;;;5.03;1.30;;;;;;;8.59;100.00;99182.28;1826358;77;930311;-73
2021/03/13 01:22:12;;;;;;;3.87;1.50;;;;;;;8.57;100.00;99178.44;1847007;76;932472;-73
2021/03/13 01:24:42;;;;;;;3.73;1.03;;;;;;;8.46;100.00;99203.34;1859296;76;930436;-72
2021/03/13 01:27:11;;;;;;;2.47;0.80;;;;;;;8.41;100.00;99213.69;1814527;77;932487;-73
2021/03/13 01:29:41;;;;;;;1.37;0.80;;;;;;;8.09;100.00;99200.23;1826431;77;930487;-72
2021/03/13 01:32:11;;;;;;;2.17;0.50;;;;;;;8.00;100.00;99146.00;1846900;76;932456;-72
2021/03/13 01:34:41;;;;;;;0.80;0.60;;;;;;;7.91;100.00;99127.94;1826191;77;930595;-73
2021/03/13 01:37:12;;;;;;;3.53;0.63;;;;;;;7.83;100.00;99139.70;1847091;76;931697;-73
2021/03/13 01:39:42;;;;;;;1.65;0.50;;;;;;;7.83;100.00;99137.52;1826366;77;930444;-73
2021/03/13 01:42:12;;;;;;;1.33;0.60;;;;;;;7.74;100.00;99089.06;1814461;77;932374;-73
2021/03/13 01:44:42;;;;;;;4.00;0.93;;;;;;;7.73;100.00;99091.56;1859091;76;930281;-73
2021/03/13 01:47:18;;;;;;;0.60;0.47;;;;;;;7.76;100.00;99090.94;1814399;77;932425;-73
2021/03/13 01:49:49;;;;;;;2.37;0.80;;;;;;;7.76;100.00;99093.70;1859034;76;930539;-72
2021/03/13 01:52:20;;;;;;;3.40;0.70;;;;;;;7.78;100.00;99088.14;1826444;77;932351;-72
2021/03/13 01:54:51;;;;;;;5.60;0.80;;;;;;;7.85;100.00;99073.88;1859147;76;930519;-72
2021/03/13 01:57:22;;;;;;;1.97;0.50;;;;;;;7.77;100.00;99088.44;1859249;76;932361;-73
2021/03/13 01:59:52;;;;;;;3.13;0.97;;;;;;;7.79;100.00;99084.78;1814449;77;932413;-72
2021/03/13 02:02:24;;;;;;;2.20;0.83;;;;;;;7.75;100.00;99070.77;1859128;76;932514;-72
2021/03/13 02:04:53;;;;;;;3.20;0.70;;;;;;;7.81;100.00;99068.72;1814370;77;931316;-73
2021/03/13 02:07:26;;;;;;;1.50;0.70;;;;;;;7.72;100.00;99070.58;1859262;76;932615;-72
2021/03/13 02:10:04;;;;;;;1.90;1.07;;;;;;;7.66;100.00;99062.14;1814482;77;932639;-72
2021/03/13 02:12:41;;;;;;;2.87;0.70;;;;;;;7.64;100.00;99053.36;1858782;76;932505;-72
2021/03/13 02:15:14;;;;;;;3.40;0.70;;;;;;;7.65;100.00;99048.91;1814478;75;932654;-72
2021/03/13 02:17:49;;;;;;;2.80;0.87;;;;;;;7.58;100.00;99045.73;1826334;77;930469;-72
2021/03/13 02:20:42;;;;;;;2.53;1.10;;;;;;;7.60;100.00;99044.88;1859262;76;932314;-72
2021/03/13 02:23:13;;;;;;;3.63;0.70;;;;;;;7.59;100.00;99039.09;1813348;77;932818;-73
2021/03/13 02:25:53;;;;;;;4.57;0.93;;;;;;;7.54;100.00;99026.77;1859135;76;930405;-72
2021/03/13 02:28:27;;;;;;;4.60;1.07;;;;;;;7.58;100.00;99021.42;1859299;76;931160;-72
2021/03/13 02:30:59;;;;;;;6.33;1.37;;;;;;;7.62;100.00;99026.03;1815678;77;932390;-73
2021/03/13 02:33:33;;;;;;;2.67;0.63;;;;;;;7.55;100.00;99024.82;1826382;77;931505;-73
2021/03/13 02:36:05;;;;;;;3.97;1.00;;;;;;;7.56;100.00;99029.22;1814361;77;931524;-72
2021/03/13 02:38:38;;;;;;;5.67;1.23;;;;;;;7.54;100.00;99030.08;1859110;76;932612;-73
2021/03/13 02:41:11;;;;;;;6.15;1.57;;;;;;;7.54;100.00;99043.33;1847169;76;932221;-73
2021/03/13 02:43:44;;;;;;;5.97;1.30;;;;;;;7.63;100.00;99051.16;1826481;77;930529;-73
2021/03/13 02:46:17;;;;;;;5.43;1.60;;;;;;;7.62;100.00;99042.60;1847245;76;932586;-73
2021/03/13 02:48:48;;;;;;;4.60;1.20;;;;;;;7.52;100.00;99051.13;1859340;76;930613;-73
2021/03/13 02:51:22;;;;;;;8.47;1.43;;;;;;;7.15;100.00;99056.86;1826501;77;932408;-73
2021/03/13 02:53:53;;;;;;;7.83;1.60;;;;;;;6.99;100.00;99070.15;1847125;76;932576;-73
2021/03/13 02:56:24;;;;;;;5.10;2.13;;;;;;;7.00;100.00;99073.17;1859182;76;932590;-72
2021/03/13 02:58:56;;;;;;;7.23;1.20;;;;;;;7.02;100.00;99065.95;1814510;77;932600;-73
2021/03/13 03:01:29;;;;;;;6.43;1.17;;;;;;;6.97;100.00;99063.31;1826569;77;931276;-73
2021/03/13 03:04:02;;;;;;;9.13;1.70;;;;;;;7.00;100.00;99065.45;1847052;76;931424;-73
2021/03/13 03:06:36;;;;;;;7.17;1.27;;;;;;;7.11;100.00;99064.94;1826518;77;932369;-73
2021/03/13 03:09:08;;;;;;;8.35;2.10;;;;;;;7.12;100.00;99056.92;1847360;76;932327;-73
2021/03/13 03:11:40;;;;;;;9.17;2.03;;;;;;;7.18;100.00;99058.47;1826498;77;930566;-73
2021/03/13 03:14:13;;;;;;;7.70;1.60;;;;;;;7.20;100.00;99045.72;1814599;77;932410;-73
2021/03/13 03:17:03;;;;;;;4.80;1.90;;;;;;;7.23;100.00;99049.27;1787293;76;932600;-73
2021/03/13 03:19:35;;;;;;;8.47;2.87;;;;;;;7.15;100.00;99034.21;1799501;79;932656;-74
2021/03/13 03:22:05;;;;;;;8.55;2.77;;;;;;;7.11;100.00;99044.23;1787745;78;932520;-73
2021/03/13 03:24:35;;;;;;;11.77;2.67;;;;;;;7.15;100.00;99032.01;1799446;79;932424;-72
2021/03/13 03:27:07;;;;;;;10.85;2.35;;;;;;;7.27;100.00;99038.65;1787745;79;934535;-73
2021/03/13 03:29:37;;;;;;;10.00;2.40;;;;;;;7.25;100.00;99043.68;1799504;79;932666;-73
2021/03/13 03:32:07;;;;;;;7.35;2.45;;;;;;;7.28;100.00;99062.94;1787732;78;934852;-72
2021/03/13 03:34:38;;;;;;;11.40;3.00;;;;;;;7.37;100.00;99039.56;1799432;79;930583;-73
2021/03/13 03:37:08;;;;;;;11.20;2.20;;;;;;;7.37;100.00;99050.61;1787670;79;934577;-74
2021/03/13 03:39:38;;;;;;;15.27;3.97;;;;;;;7.32;100.00;99059.27;1799424;79;932519;-73
2021/03/13 03:42:09;;;;;;;10.13;2.17;;;;;;;7.24;100.00;99064.69;1787821;77;934640;-73
2021/03/13 03:44:42;;;;;;;9.90;2.30;;;;;;;7.18;100.00;99079.17;1799445;79;932744;-73
2021/03/13 03:47:13;;;;;;;7.97;2.00;;;;;;;7.04;100.00;99074.75;1787463;79;932510;-73
2021/03/13 03:49:46;;;;;;;6.87;1.97;;;;;;;6.95;100.00;99076.58;1847656;76;930452;-73
2021/03/13 03:52:17;;;;;;;11.20;2.17;;;;;;;6.95;100.00;99081.54;1826529;77;932360;-73
2021/03/13 03:54:49;;;;;;;7.83;2.30;;;;;;;6.98;100.00;99073.20;1826472;77;932606;-72
2021/03/13 03:57:19;;;;;;;7.37;1.73;;;;;;;6.85;100.00;99065.16;1826565;77;932444;-72
2021/03/13 03:59:50;;;;;;;7.10;1.27;;;;;;;6.79;100.00;99063.64;1859354;76;930463;-72
2021/03/13 04:02:22;;;;;;;9.10;1.60;;;;;;;6.75;100.00;99057.09;1826379;77;932543;-72
2021/03/13 04:04:53;;;;;;;6.20;2.00;;;;;;;6.69;100.00;99052.77;1847076;76;932399;-73
2021/03/13 04:07:23;;;;;;;6.13;1.50;;;;;;;6.57;100.00;99046.93;1826524;77;932371;-72
2021/03/13 04:09:53;;;;;;;6.20;1.40;;;;;;;6.56;100.00;99052.18;1814737;77;932396;-73
2021/03/13 04:12:24;;;;;;;6.13;1.23;;;;;;;6.60;100.00;99056.79;1826635;77;932550;-72
2021/03/13 04:14:54;;;;;;;5.70;1.40;;;;;;;6.50;100.00;99068.02;1847152;76;932580;-73
2021/03/13 04:17:25;;;;;;;5.43;1.23;;;;;;;6.51;100.00;99062.73;1826514;76;932700;-72
2021/03/13 04:19:55;;;;;;;8.47;2.43;;;;;;;6.47;100.00;99067.78;1847204;76;932599;-73
2021/03/13 04:22:26;;;;;;;5.97;1.47;;;;;;;6.47;100.00;99069.16;1826667;77;932297;-73
2021/03/13 04:24:58;;;;;;;6.85;1.60;;;;;;;6.42;100.00;99072.81;1847265;76;932470;-74
2021/03/13 04:27:28;;;;;;;8.97;2.17;;;;;;;6.39;100.00;99080.33;1826566;77;931625;-73
2021/03/13 04:29:58;;;;;;;8.33;1.45;;;;;;;6.55;100.00;99070.66;1814651;77;932768;-72
2021/03/13 04:32:29;;;;;;;7.87;1.97;;;;;;;6.63;100.00;99073.31;1859414;76;932419;-72
2021/03/13 04:35:00;;;;;;;9.07;2.20;;;;;;;6.60;100.00;99076.66;1814665;77;932627;-73
2021/03/13 04:37:30;;;;;;;11.60;2.40;;;;;;;6.61;100.00;99074.98;1826570;77;932342;-75
2021/03/13 04:40:01;;;;;;;5.43;1.70;;;;;;;6.64;100.00;99059.20;1814501;77;934481;-72
2021/03/13 04:42:31;;;;;;;7.53;2.17;;;;;;;6.64;100.00;99059.20;1859308;76;932858;-72
2021/03/13 04:45:01;;;;;;;9.23;2.30;;;;;;;6.63;100.00;99051.25;1847170;76;932342;-73
2021/03/13 04:47:32;;;;;;;12.47;2.30;;;;;;;6.58;100.00;99067.88;1826571;77;932644;-74
2021/03/13 04:50:02;;;;;;;10.10;2.10;;;;;;;6.58;100.00;99070.64;1847052;76;944241;-73
2021/03/13 04:52:32;;;;;;;14.18;2.20;;;;;;;6.62;100.00;99070.30;1859277;76;934554;-72
2021/03/13 04:55:02;;;;;;;9.33;2.22;;;;;;;6.58;100.00;99053.53;1814434;77;941159;-72
2021/03/13 04:57:32;;;;;;;12.70;2.77;;;;;;;6.58;100.00;99059.05;1826495;77;932296;-72
2021/03/13 05:00:02;;;;;;;12.90;2.67;;;;;;;6.65;100.00;99053.95;1847199;76;934393;-72
2021/03/13 05:02:32;;;;;;;16.07;2.33;;;;;;;6.68;100.00;99046.44;1813708;77;982451;-72
2021/03/13 05:05:02;;;;;;;10.90;2.95;;;;;;;6.66;100.00;99063.05;1846976;76;942491;-72
2021/03/13 05:07:32;;;;;;;11.43;2.77;;;;;;;6.70;100.00;99063.52;1826501;77;934477;-73
2021/03/13 05:10:03;;;;;;;10.80;2.33;;;;;;;6.76;100.00;99076.67;1814444;77;934590;-72
2021/03/13 05:12:33;;;;;;;9.87;2.60;;;;;;;6.78;100.00;99083.51;1859382;76;933437;-74
2021/03/13 05:15:05;;;;;;;12.77;2.37;;;;;;;6.83;100.00;99090.32;1814732;77;931255;-73
2021/03/13 05:17:35;;;;;;;9.73;2.07;;;;;;;6.80;100.00;99099.19;1826405;77;934665;-72
2021/03/13 05:20:07;;;;;;;10.32;2.67;;;;;;;6.69;100.00;99091.40;1814705;75;932491;-72
2021/03/13 05:22:36;;;;;;;10.57;2.00;;;;;;;6.60;100.00;99105.62;1826521;77;932487;-73
2021/03/13 05:25:09;;;;;;;8.63;2.27;;;;;;;6.57;100.00;99082.78;1814675;77;934365;-73
2021/03/13 05:27:39;;;;;;;6.73;1.80;;;;;;;6.51;100.00;99080.66;1859190;76;930435;-72
2021/03/13 05:30:12;;;;;;;7.90;1.72;;;;;;;6.49;100.00;99084.30;1847422;76;932377;-72
2021/03/13 05:32:42;;;;;;;7.77;1.73;;;;;;;6.43;100.00;99079.16;1826494;77;930519;-72
2021/03/13 05:35:14;;;;;;;6.80;2.10;;;;;;;6.40;100.00;99089.69;1847029;76;932529;-72
2021/03/13 05:37:43;;;;;;;11.03;2.77;;;;;;;6.42;100.00;99106.50;1859452;76;930452;-72
2021/03/13 05:40:14;;;;;;;12.28;2.62;;;;;;;6.35;100.00;99091.14;1814165;77;934659;-72
2021/03/13 05:42:44;;;;;;;8.97;2.03;;;;;;;6.36;100.00;99107.95;1859261;76;932944;-72
2021/03/13 05:45:15;;;;;;;12.17;2.70;;;;;;;6.37;100.00;99093.02;1847191;76;932285;-72
2021/03/13 05:47:47;;;;;;;14.27;2.73;;;;;;;6.35;100.00;99095.83;1826601;77;932564;-73
2021/03/13 05:50:19;;;;;;;13.93;2.90;;;;;;;6.42;100.00;99097.64;1826408;77;934360;-73
2021/03/13 05:52:52;;;;;;;11.73;2.73;;;;;;;6.46;100.00;99089.61;1826563;77;932594;-72
2021/03/13 05:55:22;;;;;;;13.07;2.87;;;;;;;6.32;100.00;99095.88;1859311;76;934520;-73
2021/03/13 05:57:53;;;;;;;13.83;2.93;;;;;;;6.32;100.00;99095.88;1814453;77;934627;-73
2021/03/13 06:00:25;;;;;;;11.40;2.53;;;;;;;6.33;100.00;99114.63;1826392;77;934552;-75
2021/03/13 06:02:55;;;;;;;8.80;2.47;;;;;;;6.42;100.00;99110.63;1846925;76;934764;-73
2021/03/13 06:05:25;;;;;;;8.80;2.33;;;;;;;6.45;100.00;99111.41;1826542;77;932815;-73
2021/03/13 06:07:56;;;;;;;11.60;2.92;;;;;;;6.47;100.00;99117.42;1814590;77;932521;-73
2021/03/13 06:10:26;;;;;;;12.67;2.77;;;;;;;6.45;100.00;99118.30;1859172;76;934687;-73
2021/03/13 06:12:55;;;;;;;11.78;2.40;;;;;;;6.38;100.00;99125.00;1814392;77;934476;-73
2021/03/13 06:15:27;;;;;;;8.03;1.87;;;;;;;6.45;100.00;99116.92;1859116;76;934546;-73
2021/03/13 06:17:58;;;;;;;10.00;2.30;;;;;;;6.37;100.00;99116.45;1814671;77;932339;-73
2021/03/13 06:20:33;;;;;;;6.87;1.93;;;;;;;6.44;100.00;99129.06;1859228;73;934857;-72
2021/03/13 06:23:06;;;;;;;9.93;2.30;;;;;;;6.49;100.00;99114.64;1814616;77;932343;-72
2021/03/13 06:25:38;;;;;;;8.73;1.97;;;;;;;6.49;100.00;99120.16;1858701;76;932439;-72
2021/03/13 06:28:11;;;;;;;9.30;2.47;;;;;;;6.54;100.00;99111.80;1814663;77;932509;-72
2021/03/13 06:30:44;;;;;;;9.53;2.23;;;;;;;6.54;100.00;99117.87;1859361;76;930467;-75
2021/03/13 06:33:28;;;;;;;7.60;2.00;;;;;;;6.53;100.00;99109.33;1814445;77;932389;-74
2021/03/13 06:36:00;;;;;;;8.37;1.90;;;;;;;6.58;100.00;99109.26;1847219;76;932399;-74
2021/03/13 06:38:33;;;;;;;7.40;2.00;;;;;;;6.51;100.00;99108.80;1826435;77;932374;-74
2021/03/13 06:41:15;;;;;;;5.60;1.57;;;;;;;6.60;100.00;99109.76;1847266;76;934481;-74
2021/03/13 06:43:47;;;;;;;8.87;1.80;;;;;;;6.68;100.00;99118.72;1859377;76;930498;-73
2021/03/13 06:46:18;;;;;;;9.33;2.10;;;;;;;6.65;100.00;99119.33;1826551;77;932428;-74
2021/03/13 06:48:50;;;;;;;7.83;1.80;;;;;;;6.64;100.00;99120.45;1859354;76;930508;-73
2021/03/13 06:51:28;;;;;;;10.57;2.30;;;;;;;6.59;100.00;99124.69;1859326;76;932364;-74
2021/03/13 06:54:11;;;;;;;6.97;1.67;;;;;;;6.68;100.00;99129.75;1814561;77;934512;-73
2021/03/13 06:56:43;;;;;;;11.53;2.13;;;;;;;6.76;100.00;99141.51;1859307;76;930461;-74
2021/03/13 06:59:30;;;;;;;10.40;1.77;;;;;;;6.70;100.00;99121.45;1814512;77;934763;-73
2021/03/13 07:02:07;;;;;;;10.08;1.90;;;;;;;6.79;100.00;99136.75;1846904;76;934700;-72
2021/03/13 07:04:41;;;;;;;9.55;2.15;;;;;;;6.81;100.00;99137.25;1826372;77;932574;-73
2021/03/13 07:07:14;;;;;;;8.90;2.80;;;;;;;6.84;100.00;99130.59;1847067;76;932342;-73
2021/03/13 07:09:51;;;;;;;11.57;2.40;;;;;;;6.81;100.00;99135.88;1859177;76;930534;-73
2021/03/13 07:12:34;;;;;;;7.10;2.30;;;;;;;6.78;100.00;99135.11;1826513;77;934511;-72
2021/03/13 07:15:19;;;;;;;9.25;1.77;;;;;;;6.78;100.00;99126.83;1847255;76;932358;-73
2021/03/13 07:17:51;;;;;;;9.90;2.50;;;;;;;6.80;100.00;99142.54;1859171;76;930705;-73
2021/03/13 07:20:23;;;;;;;12.70;2.90;;;;;;;6.82;100.00;99137.52;1826330;77;932555;-75
2021/03/13 07:22:55;;;;;;;8.40;2.23;;;;;;;6.88;100.00;99136.33;1846842;75;934735;-73
2021/03/13 07:25:27;;;;;;;7.97;2.63;;;;;;;6.96;100.00;99141.14;1859268;76;932580;-73
2021/03/13 07:27:59;;;;;;;12.70;3.52;;;;;;;7.08;100.00;99137.33;1814446;77;932353;-73
2021/03/13 07:30:31;;;;;;;9.90;2.33;;;;;;;7.13;100.00;99140.56;1858968;76;934646;-73
2021/03/13 07:33:03;;;;;;;6.35;1.95;;;;;;;7.19;100.00;99148.99;1846912;76;932304;-74
2021/03/13 07:35:37;;;;;;;10.77;2.40;;;;;;;7.24;100.00;99156.63;1826481;77;932263;-75
2021/03/13 07:38:10;;;;;;;11.38;2.47;;;;;;;7.25;100.00;99171.25;1814215;77;933680;-73
2021/03/13 07:40:43;;;;;;;7.73;1.97;;;;;;;7.23;100.00;99181.21;1859160;76;932543;-73
2021/03/13 07:43:15;;;;;;;8.43;1.40;;;;;;;7.19;100.00;99202.27;1814386;77;932418;-75
2021/03/13 07:45:48;;;;;;;7.13;1.33;;;;;;;7.16;100.00;99202.89;1859241;76;930434;-74
2021/03/13 07:48:19;;;;;;;5.50;1.20;;;;;;;7.14;100.00;99207.91;1859184;76;932473;-73
2021/03/13 07:50:49;;;;;;;7.30;1.43;;;;;;;7.19;100.00;99216.08;1826497;77;930525;-73
2021/03/13 07:53:20;;;;;;;5.47;1.23;;;;;;;7.32;100.00;99219.44;1859143;76;932548;-73
2021/03/13 07:55:53;;;;;;;4.97;1.03;;;;;;;7.35;100.00;99208.92;1826333;77;930579;-74
2021/03/13 07:58:24;;;;;;;5.60;1.80;;;;;;;7.47;100.00;99219.73;1859300;76;932445;-73
2021/03/13 08:00:55;;;;;;;7.57;1.87;;;;;;;7.49;100.00;99235.42;1846920;76;932817;-73
2021/03/13 08:03:48;;;;;;;7.27;1.93;;;;;;;7.56;100.00;99217.91;1826268;77;932387;-74
2021/03/13 08:06:18;;;;;;;5.30;1.47;;;;;;;7.66;100.00;99213.55;1859107;76;932480;-73
2021/03/13 08:08:52;;;;;;;5.90;1.90;;;;;;;7.74;100.00;99218.95;1826205;77;930532;-72
2021/03/13 08:11:27;;;;;;;7.53;1.57;;;;;;;7.84;100.00;99244.16;1859118;76;932370;-73
2021/03/13 08:14:02;;;;;;;7.87;1.53;;;;;;;7.94;100.00;99249.50;1846248;76;932573;-73
2021/03/13 08:16:42;;;;;;;7.27;1.40;;;;;;;8.10;100.00;99246.67;1826267;77;932386;-75
2021/03/13 08:19:30;;;;;;;5.27;1.60;;;;;;;8.16;100.00;99246.28;1846776;76;932348;-73
2021/03/13 08:22:15;;;;;;;4.50;1.13;;;;;;;8.34;100.00;99254.23;1846832;76;932473;-73
2021/03/13 08:24:48;;;;;;;8.67;1.87;;;;;;;8.55;100.00;99260.14;1826287;76;930543;-74
2021/03/13 08:27:21;;;;;;;4.67;1.40;;;;;;;8.41;100.00;99253.80;1859018;76;932452;-72
2021/03/13 08:29:58;;;;;;;9.43;1.97;;;;;;;8.32;100.00;99254.27;1848521;76;932607;-74
2021/03/13 08:33:05;;;;;;;8.53;2.10;;;;;;;8.21;100.00;99259.19;1848746;76;932464;-74
2021/03/13 08:35:54;;;;;;;6.27;1.87;;;;;;;8.21;100.00;99256.42;1826252;77;931045;-73
2021/03/13 08:38:47;;;;;;;6.63;1.50;;;;;;;8.24;100.00;99266.86;1859010;76;932419;-73
2021/03/13 08:41:28;;;;;;;6.17;1.57;;;;;;;8.16;100.00;99267.02;1826312;77;932429;-73
2021/03/13 08:44:03;;;;;;;9.33;1.60;;;;;;;8.19;100.00;99273.31;1813068;77;932576;-73
2021/03/13 08:46:44;;;;;;;7.30;1.70;;;;;;;8.36;100.00;99283.77;1859393;76;931572;-73
2021/03/13 08:49:35;;;;;;;13.17;1.90;;;;;;;8.44;100.00;99277.52;1814491;77;931270;-73
2021/03/13 08:52:26;;;;;;;5.77;1.53;;;;;;;8.47;100.00;99278.27;1822566;76;933427;-73
2021/03/13 08:54:56;;;;;;;8.60;2.07;;;;;;;8.48;100.00;99305.38;1814436;77;931736;-72
2021/03/13 08:57:48;;;;;;;4.75;1.00;;;;;;;8.46;100.00;99315.95;1859101;76;932341;-72
2021/03/13 09:00:19;;;;;;;5.43;1.30;;;;;;;8.48;100.00;99309.52;1826489;77;932305;-73
2021/03/13 09:02:51;;;;;;;9.63;1.77;;;;;;;8.53;100.00;99329.62;1859191;76;930659;-73
2021/03/13 09:05:24;;;;;;;6.10;1.40;;;;;;;8.66;100.00;99333.50;1826384;77;932474;-73
2021/03/13 09:07:55;;;;;;;4.60;1.57;;;;;;;8.49;100.00;99341.61;1847177;76;931538;-73
2021/03/13 09:10:25;;;;;;;7.07;1.40;;;;;;;8.48;100.00;99345.50;1859291;76;932418;-74
2021/03/13 09:12:56;;;;;;;6.87;0.90;;;;;;;8.54;100.00;99353.41;1814413;77;932510;-73
2021/03/13 09:15:26;;;;;;;5.93;1.47;;;;;;;8.60;100.00;99346.61;1859340;76;932312;-73
2021/03/13 09:17:56;;;;;;;4.92;1.35;;;;;;;8.70;100.00;99344.20;1847108;76;932397;-73
2021/03/13 09:20:26;;;;;;;7.10;1.37;;;;;;;8.67;100.00;99348.42;1826436;77;931484;-73
2021/03/13 09:22:56;;;;;;;5.17;1.62;;;;;;;8.78;100.00;99349.00;1846919;76;931684;-73
2021/03/13 09:25:25;;;;;;;4.63;1.30;;;;;;;8.94;100.00;99371.07;1859367;73;932402;-73
2021/03/13 09:27:56;;;;;;;6.00;1.20;;;;;;;9.09;100.00;99367.16;1814397;77;932444;-74
2021/03/13 09:30:27;;;;;;;5.80;1.87;;;;;;;8.92;100.00;99379.45;1826581;77;932545;-75
2021/03/13 09:32:57;;;;;;;6.42;1.40;;;;;;;8.87;100.00;99395.60;1846938;76;932333;-75
2021/03/13 09:35:29;;;;;;;4.23;1.17;;;;;;;9.00;100.00;99409.99;1826592;77;932659;-74
2021/03/13 09:37:58;;;;;;;4.37;1.12;;;;;;;9.00;100.00;99405.84;1814513;77;931286;-73
2021/03/13 09:40:29;;;;;;;2.72;1.32;;;;;;;8.91;100.00;99389.70;1859359;76;932397;-74
2021/03/13 09:42:59;;;;;;;3.95;1.10;;;;;;;8.91;100.00;99396.63;1847127;76;932586;-74
2021/03/13 09:45:29;;;;;;;6.07;1.10;;;;;;;8.94;100.00;99405.69;1826703;77;932311;-74
2021/03/13 09:48:03;;;;;;;3.13;0.97;;;;;;;8.98;100.00;99405.91;1847167;76;931249;-73
2021/03/13 09:50:34;;;;;;;3.60;1.10;;;;;;;9.09;100.00;99401.77;1859346;76;932429;-74
2021/03/13 09:53:07;;;;;;;5.80;1.47;;;;;;;9.07;100.00;99420.08;1814746;77;932256;-74
2021/03/13 09:55:37;;;;;;;4.80;0.80;;;;;;;9.08;100.00;99428.64;1859329;76;930525;-74
2021/03/13 09:58:07;;;;;;;3.58;0.93;;;;;;;9.04;100.00;99434.55;1814622;77;932390;-74
2021/03/13 10:00:42;;;;;;;4.90;0.90;;;;;;;8.93;100.00;99437.30;1859552;76;930458;-73
2021/03/13 10:03:14;;;;;;;1.93;1.00;;;;;;;9.00;100.00;99437.69;1814416;77;932546;-73
2021/03/13 10:05:44;;;;;;;3.70;0.83;;;;;;;9.04;100.00;99452.55;1859430;76;930702;-73
2021/03/13 10:08:15;;;;;;;4.67;0.80;;;;;;;8.98;100.00;99441.91;1814524;77;932374;-75
2021/03/13 10:10:47;;;;;;;3.67;0.70;;;;;;;9.11;100.00;99451.56;1859380;76;930811;-73
2021/03/13 10:13:19;;;;;;;2.63;1.03;;;;;;;9.15;100.00;99453.17;1859195;76;931235;-72
2021/03/13 10:15:49;;;;;;;2.03;0.60;;;;;;;9.16;100.00;99462.31;1826414;77;930500;-73
2021/03/13 10:18:21;;;;;;;4.77;0.90;;;;;;;9.00;100.00;99474.25;1826462;77;932304;-73
2021/03/13 10:20:58;;;;;;;4.87;1.20;;;;;;;9.14;100.00;99464.81;1852773;76;932373;-73
2021/03/13 10:23:34;;;;;;;4.93;0.70;;;;;;;9.17;100.00;99474.45;1859334;75;932584;-72
2021/03/13 10:26:07;;;;;;;3.33;0.93;;;;;;;9.04;100.00;99482.20;1814674;76;932985;-73
2021/03/13 10:28:39;;;;;;;2.20;0.70;;;;;;;9.03;100.00;99501.31;1859472;76;930671;-73
2021/03/13 10:31:11;;;;;;;2.70;0.95;;;;;;;9.07;100.00;99492.09;1847231;76;932584;-73
2021/03/13 10:33:42;;;;;;;3.23;0.60;;;;;;;9.07;100.00;99492.09;1826608;77;930571;-73
2021/03/13 10:36:14;;;;;;;2.97;0.67;;;;;;;9.19;100.00;99498.52;1814432;77;932505;-72
2021/03/13 10:38:47;;;;;;;4.83;0.80;;;;;;;9.37;100.00;99493.39;1859293;76;929679;-73
2021/03/13 10:41:20;;;;;;;2.90;0.90;;;;;;;9.65;100.00;99516.34;1826408;77;932282;-73
2021/03/13 10:43:52;;;;;;;2.53;1.00;;;;;;;9.88;100.00;99524.16;1859223;76;930486;-73
2021/03/13 10:46:23;;;;;;;4.97;1.00;;;;;;;9.88;100.00;99521.37;1826395;77;932429;-73
2021/03/13 10:49:26;;;;;;;1.87;0.80;;;;;;;9.72;100.00;99533.93;1847147;76;942741;-75
2021/03/13 10:51:57;;;;;;;5.35;0.80;;;;;;;9.57;100.00;99531.77;1847004;76;932538;-74
2021/03/13 10:54:29;;;;;;;2.37;0.73;;;;;;;9.50;100.00;99534.69;1826569;77;932425;-74
2021/03/13 10:57:07;;;;;;;3.83;1.10;;;;;;;9.59;100.00;99529.48;1847119;76;932542;-74
2021/03/13 10:59:37;;;;;;;2.33;0.83;;;;;;;9.53;100.00;99523.00;1859459;76;930522;-73
2021/03/13 11:02:07;;;;;;;2.33;0.60;;;;;;;9.67;100.00;99536.84;1814661;77;931407;-74
2021/03/13 11:04:37;;;;;;;5.80;0.73;;;;;;;9.80;100.00;99521.53;1826481;77;930405;-75
2021/03/13 11:07:08;;;;;;;3.37;0.80;;;;;;;9.85;100.00;99523.37;1847096;76;932670;-74
2021/03/13 11:09:38;;;;;;;2.73;0.83;;;;;;;9.99;100.00;99544.39;1859520;76;930285;-74
2021/03/13 11:12:09;;;;;;;2.85;0.95;;;;;;;10.04;100.00;99542.06;1814698;77;932390;-75
2021/03/13 11:14:39;;;;;;;1.67;0.77;;;;;;;9.81;100.00;99539.81;1826525;77;932541;-76
2021/03/13 11:17:10;;;;;;;2.53;0.70;;;;;;;9.88;100.00;99553.27;1847304;76;932604;-76
2021/03/13 11:19:40;;;;;;;3.33;0.90;;;;;;;9.97;100.00;99556.35;1859555;76;930717;-76
2021/03/13 11:22:10;;;;;;;1.03;0.57;;;;;;;10.02;100.00;99559.02;1814579;77;932686;-76
2021/03/13 11:24:40;;;;;;;2.07;0.60;;;;;;;10.13;100.00;99556.84;1859299;76;932580;-75
2021/03/13 11:27:10;;;;;;;3.07;0.70;;;;;;;10.25;100.00;99559.90;1847157;76;934513;-75
2021/03/13 11:29:42;;;;;;;4.83;0.90;;;;;;;10.35;100.00;99564.39;1826443;76;932797;-75
2021/03/13 11:32:12;;;;;;;4.17;0.63;;;;;;;10.51;100.00;99558.70;1847057;76;934516;-76
2021/03/13 11:34:42;;;;;;;4.23;0.80;;;;;;;10.39;100.00;99559.84;1826435;77;932529;-74
2021/03/13 11:37:12;;;;;;;3.10;1.03;;;;;;;10.32;100.00;99571.94;1847095;76;934365;-74
2021/03/13 11:39:42;;;;;;;4.70;1.10;;;;;;;10.40;100.00;99573.95;1859318;76;932525;-74
2021/03/13 11:42:12;;;;;;;3.97;1.00;;;;;;;10.55;100.00;99572.77;1814460;77;934673;-73
2021/03/13 11:44:42;;;;;;;2.13;0.70;;;;;;;10.57;100.00;99555.23;1859295;76;932709;-73
2021/03/13 11:47:12;;;;;;;2.33;0.80;;;;;;;10.56;100.00;99572.46;1814467;77;934380;-74